Time;durP1;ratioP1;P1;durP2;ratioP2;P2;SDS_P1;SDS_P2;PMS_P1;PMS_P2;Temp;Humidity;BMP_temperature;BMP_pressure;BME280_temperature;BME280_humidity;BME280_pressure;Samples;Min_cycle;Max_cycle;Signal;HPM_P1;HPM_P2
2021/01/10 00:00:11;;;;;;;22.90;13.27;;;;;;;-2.04;94.24;96647.88;5079360;28;20788;-86
2021/01/10 00:02:38;;;;;;;25.40;12.23;;;;;;;-2.12;94.49;96646.75;5090313;28;20941;-85
2021/01/10 00:05:07;;;;;;;21.07;11.27;;;;;;;-2.09;93.95;96646.59;5083372;28;20477;-86
2021/01/10 00:07:33;;;;;;;26.50;13.53;;;;;;;-2.01;94.20;96647.00;5079555;28;20942;-87
2021/01/10 00:10:01;;;;;;;24.33;12.27;;;;;;;-2.10;93.77;96644.41;5079248;28;20533;-85
2021/01/10 00:12:28;;;;;;;26.30;13.13;;;;;;;-2.10;94.24;96639.13;5078925;28;20851;-85
2021/01/10 00:14:55;;;;;;;24.47;11.97;;;;;;;-2.07;93.98;96638.22;5079550;28;20461;-85
2021/01/10 00:17:22;;;;;;;24.43;12.80;;;;;;;-2.09;94.45;96632.63;5079653;28;20476;-86
2021/01/10 00:19:49;;;;;;;22.00;11.70;;;;;;;-2.12;94.34;96633.53;5101653;28;20425;-89
2021/01/10 00:22:18;;;;;;;23.80;12.10;;;;;;;-2.21;95.00;96634.31;5102284;28;20477;-87
2021/01/10 00:24:45;;;;;;;23.63;12.83;;;;;;;-2.14;94.89;96636.63;5101537;28;20516;-86
2021/01/10 00:27:14;;;;;;;27.27;13.57;;;;;;;-2.20;95.31;96635.78;5080821;28;20506;-86
2021/01/10 00:29:44;;;;;;;27.03;15.07;;;;;;;-2.19;95.35;96637.97;5079220;28;20435;-86
2021/01/10 00:32:11;;;;;;;26.57;13.40;;;;;;;-2.22;94.96;96636.22;5079610;28;20433;-86
2021/01/10 00:34:37;;;;;;;23.00;13.00;;;;;;;-2.30;95.38;96635.09;5079390;28;20456;-86
2021/01/10 00:37:08;;;;;;;29.27;13.80;;;;;;;-2.35;95.90;96629.69;5078974;28;20476;-86
2021/01/10 00:39:35;;;;;;;24.27;11.97;;;;;;;-2.30;95.50;96647.56;5079202;28;20434;-86
2021/01/10 00:42:05;;;;;;;23.13;12.60;;;;;;;-2.27;95.94;96642.13;5080352;28;20441;-86
2021/01/10 00:44:32;;;;;;;23.50;12.83;;;;;;;-2.38;96.10;96641.88;5101054;28;20442;-87
2021/01/10 00:46:58;;;;;;;23.07;14.20;;;;;;;-2.27;96.03;96644.78;5100638;28;20437;-85
2021/01/10 00:49:25;;;;;;;21.07;11.67;;;;;;;-2.22;95.42;96648.69;5100642;28;20430;-86
2021/01/10 00:51:53;;;;;;;20.20;11.23;;;;;;;-2.20;95.16;96652.38;5094350;28;20437;-86
2021/01/10 00:54:19;;;;;;;22.47;12.60;;;;;;;-2.14;95.52;96646.47;5078040;28;20472;-86
2021/01/10 00:56:46;;;;;;;21.83;11.93;;;;;;;-2.11;95.38;96651.59;5081066;28;20481;-86
2021/01/10 00:59:13;;;;;;;25.13;13.37;;;;;;;-2.09;95.31;96651.13;5086805;28;20790;-86
2021/01/10 01:01:40;;;;;;;25.87;13.30;;;;;;;-2.06;95.19;96647.59;5077713;28;20520;-86
2021/01/10 01:04:06;;;;;;;26.57;13.33;;;;;;;-2.07;95.39;96648.78;5077617;28;20454;-86
2021/01/10 01:06:33;;;;;;;25.57;12.97;;;;;;;-1.98;95.07;96656.66;5077322;28;20441;-86
2021/01/10 01:08:59;;;;;;;23.07;12.83;;;;;;;-1.96;94.92;96660.31;5076778;28;21007;-86
2021/01/10 01:11:30;;;;;;;21.43;10.90;;;;;;;-1.95;94.41;96661.06;5077421;28;20476;-86
2021/01/10 01:13:56;;;;;;;25.83;14.20;;;;;;;-1.92;93.82;96660.16;5076760;28;20473;-86
2021/01/10 01:16:23;;;;;;;21.30;11.13;;;;;;;-1.92;94.40;96662.81;5076728;28;20453;-86
2021/01/10 01:18:51;;;;;;;21.90;12.40;;;;;;;-2.02;94.42;96662.13;5077196;28;20524;-86
2021/01/10 01:21:18;;;;;;;17.23;9.60;;;;;;;-1.97;93.42;96660.78;5076829;28;20842;-86
2021/01/10 01:23:44;;;;;;;21.50;12.90;;;;;;;-1.97;93.18;96661.50;5077033;28;20472;-86
2021/01/10 01:26:15;;;;;;;20.50;11.77;;;;;;;-2.08;93.67;96663.91;5077550;28;20441;-86
2021/01/10 01:28:43;;;;;;;17.67;9.67;;;;;;;-2.05;93.89;96670.22;5077451;28;20513;-86
2021/01/10 01:31:10;;;;;;;22.90;10.07;;;;;;;-2.14;94.27;96659.69;5077292;28;20447;-86
2021/01/10 01:33:37;;;;;;;19.60;10.30;;;;;;;-2.10;93.31;96668.19;5077412;28;20464;-86
2021/01/10 01:36:05;;;;;;;20.10;10.77;;;;;;;-2.18;93.61;96673.06;5077300;28;20445;-86
2021/01/10 01:38:31;;;;;;;18.17;10.57;;;;;;;-2.14;93.30;96676.28;5076377;28;20481;-86
2021/01/10 01:41:01;;;;;;;25.47;12.80;;;;;;;-2.09;93.25;96677.56;5076426;28;20513;-86
2021/01/10 01:43:27;;;;;;;21.17;11.53;;;;;;;-2.08;93.07;96673.75;5076358;28;20875;-87
2021/01/10 01:45:53;;;;;;;16.53;11.13;;;;;;;-2.20;93.41;96678.81;5076912;28;20842;-85
2021/01/10 01:48:20;;;;;;;22.03;12.83;;;;;;;-2.21;93.96;96672.03;5076634;28;20805;-86
2021/01/10 01:50:48;;;;;;;22.07;11.53;;;;;;;-2.28;93.95;96677.66;5076447;28;20441;-86
2021/01/10 01:53:16;;;;;;;18.97;10.43;;;;;;;-2.20;94.15;96686.00;5076372;28;20450;-86
2021/01/10 01:55:46;;;;;;;21.10;10.37;;;;;;;-2.26;93.59;96685.13;5076807;28;20445;-86
2021/01/10 01:58:12;;;;;;;21.13;11.03;;;;;;;-2.37;94.65;96695.44;5076142;28;20477;-86
2021/01/10 02:00:38;;;;;;;18.00;10.20;;;;;;;-2.45;94.45;96692.41;5076178;28;20441;-86
2021/01/10 02:03:05;;;;;;;21.40;11.13;;;;;;;-2.43;94.70;96695.31;5076269;28;20452;-86
2021/01/10 02:05:33;;;;;;;21.93;10.57;;;;;;;-2.35;94.82;96693.81;5076278;28;20441;-86
2021/01/10 02:08:05;;;;;;;19.13;10.70;;;;;;;-2.39;94.99;96693.25;5076287;28;20524;-86
2021/01/10 02:10:36;;;;;;;23.60;11.10;;;;;;;-2.39;95.12;96695.16;5076323;28;20759;-86
2021/01/10 02:13:09;;;;;;;23.60;11.77;;;;;;;-2.50;95.78;96682.41;5074788;28;20456;-87
2021/01/10 02:15:36;;;;;;;19.10;10.50;;;;;;;-2.51;95.16;96675.69;5076218;28;20483;-86
2021/01/10 02:18:05;;;;;;;23.60;12.27;;;;;;;-2.57;95.57;96676.72;5075917;28;20484;-86
2021/01/10 02:20:33;;;;;;;22.20;11.70;;;;;;;-2.59;95.99;96674.53;5077149;28;20499;-86
2021/01/10 02:23:05;;;;;;;21.10;11.90;;;;;;;-2.68;96.94;96674.56;5076993;28;20455;-86
2021/01/10 02:25:33;;;;;;;20.47;10.70;;;;;;;-2.68;96.80;96671.91;5078855;28;20466;-86
2021/01/10 02:28:01;;;;;;;17.63;10.70;;;;;;;-2.66;96.41;96672.19;5085696;28;20435;-86
2021/01/10 02:30:31;;;;;;;18.23;11.00;;;;;;;-2.65;97.00;96675.56;5097883;28;20442;-85
2021/01/10 02:33:03;;;;;;;23.87;11.90;;;;;;;-2.74;97.48;96678.97;5079099;28;20434;-86
2021/01/10 02:35:31;;;;;;;24.83;12.10;;;;;;;-2.71;97.70;96678.09;5085875;28;20406;-88
2021/01/10 02:38:33;;;;;;;19.00;11.20;;;;;;;-2.73;97.86;96675.16;5094834;28;20478;-86
2021/01/10 02:41:16;;;;;;;20.73;10.80;;;;;;;-2.76;97.56;96671.47;5071702;28;20472;-87
2021/01/10 02:43:49;;;;;;;24.60;12.50;;;;;;;-2.72;97.68;96669.44;5075113;28;20469;-86
2021/01/10 02:46:16;;;;;;;18.23;11.37;;;;;;;-2.72;97.06;96669.44;5075568;28;20533;-86
2021/01/10 02:48:42;;;;;;;21.27;12.50;;;;;;;-2.79;97.58;96655.81;5075328;28;20449;-87
2021/01/10 02:51:10;;;;;;;23.10;11.80;;;;;;;-2.80;97.70;96660.38;5074974;28;20450;-86
2021/01/10 02:53:36;;;;;;;23.63;12.00;;;;;;;-2.84;98.10;96659.78;5075540;28;20543;-87
2021/01/10 02:56:05;;;;;;;21.17;12.10;;;;;;;-2.89;97.92;96655.09;5075493;28;20532;-86
2021/01/10 02:58:35;;;;;;;17.97;11.37;;;;;;;-2.88;97.88;96659.19;5074974;28;20481;-87
2021/01/10 03:01:04;;;;;;;20.97;11.83;;;;;;;-2.81;98.17;96663.44;5075105;28;20440;-86
2021/01/10 03:03:32;;;;;;;19.60;12.43;;;;;;;-2.83;97.71;96657.88;5075055;28;20477;-87
2021/01/10 03:05:59;;;;;;;19.80;12.50;;;;;;;-2.82;98.01;96654.06;5074691;28;20449;-86
2021/01/10 03:08:26;;;;;;;22.90;12.23;;;;;;;-2.76;97.91;96660.22;5078645;28;20508;-84
2021/01/10 03:10:54;;;;;;;23.30;11.30;;;;;;;-2.91;97.44;96654.06;5076611;28;20482;-86
2021/01/10 03:13:22;;;;;;;21.70;11.40;;;;;;;-2.91;98.61;96646.88;5074788;28;20468;-87
2021/01/10 03:15:49;;;;;;;22.97;11.33;;;;;;;-2.89;97.87;96646.44;5074738;28;20528;-86
2021/01/10 03:18:19;;;;;;;19.17;11.13;;;;;;;-2.99;97.55;96645.00;5074684;28;20476;-86
2021/01/10 03:20:46;;;;;;;20.03;11.53;;;;;;;-3.02;97.59;96643.97;5074540;28;20508;-86
2021/01/10 03:23:12;;;;;;;20.57;11.33;;;;;;;-2.99;97.67;96637.09;5074519;28;20436;-86
2021/01/10 03:25:39;;;;;;;31.33;13.60;;;;;;;-3.01;97.39;96639.44;5074409;28;20483;-86
2021/01/10 03:28:05;;;;;;;25.50;12.43;;;;;;;-3.02;97.60;96636.06;5074414;28;20435;-86
2021/01/10 03:30:34;;;;;;;22.57;11.90;;;;;;;-2.98;97.85;96635.91;5074559;28;20432;-86
2021/01/10 03:33:00;;;;;;;19.43;11.23;;;;;;;-3.03;97.97;96636.50;5075087;28;20513;-86
2021/01/10 03:35:27;;;;;;;16.50;10.63;;;;;;;-3.04;97.30;96629.78;5074773;28;20540;-87
2021/01/10 03:37:53;;;;;;;22.00;12.30;;;;;;;-3.02;97.37;96637.97;5074453;28;20559;-86
2021/01/10 03:40:20;;;;;;;22.93;12.90;;;;;;;-3.01;97.89;96629.63;5075138;28;20433;-87
2021/01/10 03:42:46;;;;;;;26.57;13.10;;;;;;;-2.97;97.46;96630.19;5074567;28;20811;-86
2021/01/10 03:45:16;;;;;;;24.20;12.40;;;;;;;-2.94;97.40;96623.28;5075098;28;20449;-87
2021/01/10 03:47:44;;;;;;;22.53;12.50;;;;;;;-2.78;97.14;96628.22;5074605;28;20410;-86
2021/01/10 03:50:11;;;;;;;25.40;11.87;;;;;;;-2.76;97.12;96631.16;5074610;28;20520;-86
2021/01/10 03:52:37;;;;;;;19.67;12.60;;;;;;;-2.83;97.48;96628.84;5074562;28;20437;-86
2021/01/10 03:55:04;;;;;;;25.40;13.93;;;;;;;-2.78;97.39;96636.16;5074431;28;20457;-86
2021/01/10 03:57:31;;;;;;;26.07;12.70;;;;;;;-2.77;98.13;96629.69;5074534;28;20853;-86
2021/01/10 03:59:57;;;;;;;23.37;11.83;;;;;;;-2.82;98.00;96635.59;5078942;28;20456;-86
2021/01/10 04:02:24;;;;;;;25.00;12.30;;;;;;;-2.75;97.16;96640.53;5098729;28;20425;-89
2021/01/10 04:04:51;;;;;;;25.17;12.73;;;;;;;-2.78;98.16;96636.16;5098524;28;20476;-90
2021/01/10 04:07:17;;;;;;;21.53;11.57;;;;;;;-2.75;98.01;96645.81;5098543;28;20425;-88
2021/01/10 04:09:43;;;;;;;23.17;12.43;;;;;;;-2.66;97.51;96643.16;5089522;28;20437;-86
2021/01/10 04:12:10;;;;;;;22.73;11.90;;;;;;;-2.66;98.00;96639.81;5074108;28;20911;-86
2021/01/10 04:14:36;;;;;;;20.70;11.97;;;;;;;-2.57;97.67;96639.75;5073962;28;20469;-86
2021/01/10 04:17:03;;;;;;;25.10;12.50;;;;;;;-2.57;96.76;96640.50;5074380;28;20485;-87
2021/01/10 04:19:29;;;;;;;18.90;12.43;;;;;;;-2.53;96.82;96646.34;5073889;28;20474;-87
2021/01/10 04:21:56;;;;;;;21.73;10.80;;;;;;;-2.53;96.47;96645.59;5074319;28;20441;-87
2021/01/10 04:24:23;;;;;;;21.10;11.53;;;;;;;-2.45;96.53;96644.84;5074377;28;20519;-87
2021/01/10 04:26:50;;;;;;;21.77;10.53;;;;;;;-2.42;95.00;96643.97;5074047;28;20449;-87
2021/01/10 04:29:19;;;;;;;16.67;9.63;;;;;;;-2.21;94.24;96644.88;5073659;28;20445;-87
2021/01/10 04:31:46;;;;;;;15.70;9.43;;;;;;;-2.25;93.54;96639.03;5074108;28;20999;-87
2021/01/10 04:34:13;;;;;;;17.07;9.53;;;;;;;-2.19;93.60;96643.25;5073746;28;20460;-86
2021/01/10 04:36:39;;;;;;;16.73;9.93;;;;;;;-2.15;92.92;96645.72;5076303;28;20445;-86
2021/01/10 04:39:06;;;;;;;16.33;8.57;;;;;;;-2.17;91.66;96648.84;5078142;28;20433;-87
2021/01/10 04:41:34;;;;;;;15.13;8.53;;;;;;;-2.16;90.64;96642.34;5078040;28;20448;-86
2021/01/10 04:44:01;;;;;;;13.43;7.90;;;;;;;-2.05;89.91;96649.06;5077964;28;20464;-87
2021/01/10 04:46:30;;;;;;;14.80;8.80;;;;;;;-2.01;91.09;96647.72;5077957;28;20525;-87
2021/01/10 04:48:57;;;;;;;17.70;8.83;;;;;;;-1.97;91.04;96648.28;5077868;28;20559;-87
2021/01/10 04:51:27;;;;;;;19.80;10.33;;;;;;;-1.84;91.03;96650.69;5077710;28;20804;-86
2021/01/10 04:53:57;;;;;;;18.40;10.13;;;;;;;-1.85;90.76;96646.59;5078182;28;20457;-86
2021/01/10 04:56:28;;;;;;;19.10;9.40;;;;;;;-1.84;90.24;96651.44;5077738;28;20452;-86
2021/01/10 04:59:00;;;;;;;17.63;9.40;;;;;;;-1.89;90.64;96644.13;5077424;28;20552;-87
2021/01/10 05:01:31;;;;;;;17.43;9.70;;;;;;;-1.87;90.49;96646.31;5078004;28;20532;-86
2021/01/10 05:03:57;;;;;;;14.13;9.30;;;;;;;-1.86;90.53;96651.16;5078088;28;20470;-87
2021/01/10 05:06:24;;;;;;;14.67;8.47;;;;;;;-1.81;89.93;96647.88;5077316;28;20457;-87
2021/01/10 05:08:50;;;;;;;14.30;7.80;;;;;;;-1.81;89.28;96649.78;5077751;28;20445;-86
2021/01/10 05:11:17;;;;;;;16.33;9.53;;;;;;;-1.89;89.33;96644.13;5087764;28;20429;-84
2021/01/10 05:13:45;;;;;;;16.10;8.93;;;;;;;-1.85;89.85;96652.59;5080801;28;20483;-84
2021/01/10 05:16:18;;;;;;;14.57;8.80;;;;;;;-1.79;89.87;96650.09;5077417;28;20804;-85
2021/01/10 05:18:54;;;;;;;17.87;9.93;;;;;;;-1.75;89.52;96654.03;5077461;28;20465;-85
2021/01/10 05:21:23;;;;;;;13.37;7.67;;;;;;;-1.76;88.88;96651.84;5077099;28;20414;-85
2021/01/10 05:23:50;;;;;;;15.97;8.63;;;;;;;-1.81;89.20;96652.44;5076671;28;20476;-85
2021/01/10 05:26:18;;;;;;;13.97;7.90;;;;;;;-1.67;89.01;96647.22;5077338;28;20448;-84
2021/01/10 05:28:46;;;;;;;19.50;8.70;;;;;;;-1.67;88.37;96657.81;5077465;28;20437;-85
2021/01/10 05:31:18;;;;;;;15.50;9.17;;;;;;;-1.68;88.68;96656.34;5076856;28;20469;-85
2021/01/10 05:33:49;;;;;;;15.07;8.97;;;;;;;-1.76;89.36;96652.56;5077421;28;20461;-85
2021/01/10 05:36:27;;;;;;;19.73;10.10;;;;;;;-1.76;89.83;96655.22;5076633;28;20451;-85
2021/01/10 05:38:54;;;;;;;13.57;8.60;;;;;;;-1.80;89.73;96659.19;5078008;28;20477;-85
2021/01/10 05:41:23;;;;;;;14.90;8.43;;;;;;;-1.70;89.86;96660.63;5078689;28;20445;-85
2021/01/10 05:44:01;;;;;;;18.30;9.50;;;;;;;-1.59;89.34;96657.44;5077313;28;20485;-85
2021/01/10 05:46:31;;;;;;;17.63;9.57;;;;;;;-1.66;89.35;96655.88;5077445;28;20429;-86
2021/01/10 05:48:58;;;;;;;14.87;8.80;;;;;;;-1.72;89.89;96661.06;5077165;28;20445;-85
2021/01/10 05:51:28;;;;;;;19.60;9.50;;;;;;;-1.71;89.23;96664.44;5076869;28;21007;-86
2021/01/10 05:53:55;;;;;;;14.30;9.03;;;;;;;-1.71;90.10;96664.44;5077069;28;20445;-85
2021/01/10 05:56:22;;;;;;;14.80;7.60;;;;;;;-1.70;90.18;96658.69;5077686;28;20471;-85
2021/01/10 05:58:55;;;;;;;15.20;9.03;;;;;;;-1.74;89.86;96666.06;5077354;28;20505;-85
2021/01/10 06:01:23;;;;;;;15.77;8.53;;;;;;;-1.67;90.04;96665.72;5076813;28;20414;-86
2021/01/10 06:03:50;;;;;;;16.73;9.00;;;;;;;-1.67;90.62;96662.34;5076819;28;21069;-86
2021/01/10 06:06:17;;;;;;;13.13;7.47;;;;;;;-1.73;90.18;96667.53;5077346;28;20473;-85
2021/01/10 06:08:44;;;;;;;12.93;7.40;;;;;;;-1.77;89.11;96655.66;5077065;28;20444;-86
2021/01/10 06:11:24;;;;;;;11.37;6.60;;;;;;;-1.65;87.69;96665.28;5076514;28;20801;-85
2021/01/10 06:13:56;;;;;;;12.30;6.53;;;;;;;-1.59;87.06;96666.09;5076830;28;20468;-85
2021/01/10 06:16:25;;;;;;;11.20;6.97;;;;;;;-1.57;87.47;96658.47;5076173;28;20895;-86
2021/01/10 06:18:57;;;;;;;12.60;6.30;;;;;;;-1.62;85.87;96659.81;5076971;28;20533;-85
2021/01/10 06:21:26;;;;;;;10.57;6.93;;;;;;;-1.66;85.29;96667.19;5083303;28;20446;-84
2021/01/10 06:23:54;;;;;;;11.80;7.73;;;;;;;-1.66;86.36;96659.25;5091577;28;20434;-84
2021/01/10 06:26:23;;;;;;;11.77;6.07;;;;;;;-1.50;85.69;96662.69;5090826;28;20442;-84
2021/01/10 06:28:53;;;;;;;11.07;6.07;;;;;;;-1.41;83.86;96662.63;5090440;28;20455;-85
2021/01/10 06:31:24;;;;;;;13.47;7.20;;;;;;;-1.37;83.84;96671.84;5091410;28;20442;-85
2021/01/10 06:33:57;;;;;;;11.23;6.77;;;;;;;-1.40;83.08;96669.34;5087934;28;20466;-85
2021/01/10 06:36:27;;;;;;;9.20;5.37;;;;;;;-1.39;83.99;96663.63;5076488;28;20434;-85
2021/01/10 06:39:00;;;;;;;13.23;6.63;;;;;;;-1.38;83.45;96665.06;5076863;28;20470;-85
2021/01/10 06:42:02;;;;;;;13.13;5.20;;;;;;;-1.26;82.65;96660.72;5085414;28;20402;-88
2021/01/10 06:44:34;;;;;;;10.73;5.73;;;;;;;-1.29;82.82;96659.72;5085988;28;20453;-89
2021/01/10 06:47:02;;;;;;;8.40;5.47;;;;;;;-1.27;83.24;96654.69;5099312;28;20424;-88
2021/01/10 06:49:28;;;;;;;9.33;5.63;;;;;;;-1.28;83.11;96655.88;5089755;28;20458;-85
2021/01/10 06:51:57;;;;;;;9.73;5.87;;;;;;;-1.27;83.26;96662.66;5075471;28;20934;-85
2021/01/10 06:54:24;;;;;;;13.80;6.47;;;;;;;-1.31;83.29;96661.34;5076902;28;20457;-85
2021/01/10 06:56:51;;;;;;;8.90;6.20;;;;;;;-1.35;84.16;96653.59;5077018;28;20446;-85
2021/01/10 06:59:19;;;;;;;11.43;6.47;;;;;;;-1.21;83.72;96652.16;5075956;28;20510;-85
2021/01/10 07:02:02;;;;;;;11.57;6.77;;;;;;;-1.20;84.33;96658.91;5096527;28;20439;-86
2021/01/10 07:05:00;;;;;;;10.93;7.03;;;;;;;-1.30;84.45;96662.81;5098301;28;20464;-86
2021/01/10 07:07:38;;;;;;;13.20;6.97;;;;;;;-1.42;85.46;96648.66;5098278;28;20429;-87
2021/01/10 07:10:07;;;;;;;11.57;7.20;;;;;;;-1.34;85.61;96660.34;5088395;28;20403;-86
2021/01/10 07:12:33;;;;;;;14.37;7.97;;;;;;;-1.45;86.29;96662.06;5077094;28;20459;-85
2021/01/10 07:15:25;;;;;;;14.53;8.43;;;;;;;-1.53;87.27;96663.56;5077015;28;20974;-85
2021/01/10 07:18:06;;;;;;;14.10;7.93;;;;;;;-1.56;87.70;96659.91;5075307;28;20479;-86
2021/01/10 07:20:41;;;;;;;15.97;8.30;;;;;;;-1.61;88.05;96671.13;5075188;28;20982;-86
2021/01/10 07:23:30;;;;;;;14.90;8.60;;;;;;;-1.67;87.58;96672.94;5075977;28;20414;-86
2021/01/10 07:25:58;;;;;;;18.73;8.87;;;;;;;-1.63;87.88;96676.16;5075613;28;20414;-85
2021/01/10 07:28:33;;;;;;;12.37;8.43;;;;;;;-1.58;87.66;96685.34;5075695;28;20442;-86
2021/01/10 07:31:11;;;;;;;14.47;8.97;;;;;;;-1.63;88.52;96670.84;5076229;28;20540;-86
2021/01/10 07:33:39;;;;;;;12.53;8.10;;;;;;;-1.52;89.10;96673.72;5075403;28;20446;-86
2021/01/10 07:36:06;;;;;;;21.10;9.90;;;;;;;-1.51;88.84;96674.44;5076005;28;20937;-86
2021/01/10 07:38:36;;;;;;;18.90;10.50;;;;;;;-1.48;89.25;96670.91;5075522;28;20562;-85
2021/01/10 07:41:22;;;;;;;15.20;8.80;;;;;;;-1.47;89.20;96683.66;5076183;28;20782;-86
2021/01/10 07:43:49;;;;;;;17.13;9.33;;;;;;;-1.37;89.68;96674.47;5075201;28;20994;-85
2021/01/10 07:46:48;;;;;;;14.07;9.73;;;;;;;-1.39;89.72;96679.50;5075344;28;20814;-85
2021/01/10 07:49:18;;;;;;;18.47;10.83;;;;;;;-1.52;90.77;96672.97;5075271;28;20598;-85
2021/01/10 07:51:45;;;;;;;16.07;9.03;;;;;;;-1.49;90.49;96680.75;5075282;28;20437;-86
2021/01/10 07:54:12;;;;;;;16.60;9.97;;;;;;;-1.50;90.71;96678.56;5075651;28;20441;-85
2021/01/10 07:56:38;;;;;;;16.43;10.13;;;;;;;-1.46;90.39;96679.84;5075212;28;20973;-86
2021/01/10 07:59:14;;;;;;;19.00;10.87;;;;;;;-1.49;90.90;96693.97;5075169;28;20843;-86
2021/01/10 08:01:49;;;;;;;19.73;10.53;;;;;;;-1.59;91.52;96689.91;5076280;28;20845;-86
2021/01/10 08:04:31;;;;;;;15.00;9.20;;;;;;;-1.56;91.47;96685.63;5074947;28;20460;-86
2021/01/10 08:06:59;;;;;;;18.67;9.80;;;;;;;-1.66;91.59;96690.97;5075599;28;20901;-85
2021/01/10 08:09:30;;;;;;;15.43;9.73;;;;;;;-1.63;91.63;96692.72;5075895;28;20457;-85
2021/01/10 08:11:57;;;;;;;19.60;10.87;;;;;;;-1.70;91.91;96698.38;5078726;28;20520;-86
2021/01/10 08:14:23;;;;;;;19.00;10.83;;;;;;;-1.63;92.40;96697.31;5078830;28;20477;-86
2021/01/10 08:16:50;;;;;;;17.47;10.43;;;;;;;-1.49;92.01;96695.88;5080020;28;20429;-86
2021/01/10 08:19:16;;;;;;;17.37;9.80;;;;;;;-1.48;91.25;96692.78;5078859;28;20485;-86
2021/01/10 08:21:44;;;;;;;18.00;10.10;;;;;;;-1.52;91.50;96689.56;5078986;28;20425;-86
2021/01/10 08:24:11;;;;;;;16.53;10.60;;;;;;;-1.44;91.49;96688.03;5078848;28;20461;-86
2021/01/10 08:26:38;;;;;;;20.17;11.40;;;;;;;-1.36;90.83;96689.19;5078430;28;20426;-86
2021/01/10 08:29:06;;;;;;;22.57;11.50;;;;;;;-1.20;91.10;96691.41;5078390;28;20441;-86
2021/01/10 08:31:34;;;;;;;16.40;9.70;;;;;;;-1.18;89.92;96702.25;5078637;28;20487;-86
2021/01/10 08:34:01;;;;;;;18.07;10.20;;;;;;;-1.17;90.28;96705.66;5078652;28;20469;-86
2021/01/10 08:36:29;;;;;;;23.13;11.07;;;;;;;-1.23;90.05;96702.91;5078214;28;20439;-86
2021/01/10 08:38:58;;;;;;;16.87;10.60;;;;;;;-1.25;89.66;96709.81;5077977;28;20481;-86
2021/01/10 08:41:27;;;;;;;18.47;10.20;;;;;;;-1.20;89.56;96704.66;5078665;28;20453;-86
2021/01/10 08:43:55;;;;;;;15.73;9.27;;;;;;;-1.10;89.87;96702.66;5079763;28;20477;-86
2021/01/10 08:46:22;;;;;;;12.30;8.33;;;;;;;-1.12;89.23;96707.66;5078660;28;20441;-85
2021/01/10 08:48:49;;;;;;;17.67;10.50;;;;;;;-1.21;90.30;96705.81;5078563;28;20430;-86
2021/01/10 08:51:29;;;;;;;16.77;9.77;;;;;;;-1.04;90.35;96708.03;5078501;28;20539;-86
2021/01/10 08:53:57;;;;;;;18.10;9.93;;;;;;;-1.10;90.33;96706.00;5078767;28;20549;-86
2021/01/10 08:56:23;;;;;;;14.37;8.60;;;;;;;-1.12;89.68;96702.38;5078560;28;20433;-86
2021/01/10 08:58:54;;;;;;;15.10;9.10;;;;;;;-1.13;90.08;96698.28;5078259;28;20481;-85
2021/01/10 09:01:21;;;;;;;17.10;9.97;;;;;;;-1.09;89.59;96696.16;5078235;28;20406;-86
2021/01/10 09:04:02;;;;;;;14.83;9.27;;;;;;;-0.96;89.25;96694.00;5079226;28;20473;-85
2021/01/10 09:06:41;;;;;;;16.53;10.03;;;;;;;-0.89;89.19;96700.84;5080206;28;20780;-86
2021/01/10 09:09:19;;;;;;;16.00;9.40;;;;;;;-0.96;88.75;96701.19;5079565;28;20422;-85
2021/01/10 09:11:48;;;;;;;18.03;8.80;;;;;;;-0.98;87.83;96696.38;5079657;28;20453;-85
2021/01/10 09:14:17;;;;;;;16.80;10.07;;;;;;;-0.92;87.95;96710.44;5078990;28;20930;-86
2021/01/10 09:16:44;;;;;;;16.23;9.03;;;;;;;-0.85;88.71;96709.34;5079575;28;20453;-86
2021/01/10 09:19:14;;;;;;;16.57;9.03;;;;;;;-0.74;87.69;96715.56;5078636;28;20563;-86
2021/01/10 09:21:47;;;;;;;15.80;8.97;;;;;;;-0.77;86.92;96711.19;5077530;28;20494;-86
2021/01/10 09:24:16;;;;;;;15.73;9.70;;;;;;;-0.67;87.00;96699.31;5079035;28;20472;-85
2021/01/10 09:26:42;;;;;;;14.87;9.33;;;;;;;-0.61;86.48;96707.34;5078806;28;20826;-86
2021/01/10 09:29:18;;;;;;;18.90;11.40;;;;;;;-0.74;87.37;96706.88;5078318;28;20445;-87
2021/01/10 09:31:46;;;;;;;15.00;9.47;;;;;;;-0.63;86.94;96715.03;5081825;28;20442;-87
2021/01/10 09:34:12;;;;;;;18.07;9.77;;;;;;;-0.60;86.83;96709.56;5077931;28;20540;-87
2021/01/10 09:36:39;;;;;;;16.43;8.70;;;;;;;-0.61;85.28;96707.34;5077273;28;20445;-86
2021/01/10 09:39:07;;;;;;;15.70;9.37;;;;;;;-0.75;85.50;96716.03;5077014;28;20496;-86
2021/01/10 09:41:53;;;;;;;13.50;8.10;;;;;;;-0.58;85.60;96714.38;5076985;28;20438;-87
2021/01/10 09:44:20;;;;;;;15.20;8.67;;;;;;;-0.58;85.56;96709.09;5077222;28;20445;-86
2021/01/10 09:46:52;;;;;;;17.00;9.47;;;;;;;-0.73;85.66;96709.09;5078269;28;20441;-86
2021/01/10 09:49:20;;;;;;;20.30;12.33;;;;;;;-0.63;85.79;96712.38;5090408;28;20417;-87
2021/01/10 09:51:52;;;;;;;18.70;11.23;;;;;;;-0.67;85.87;96709.91;5091490;28;20463;-85
2021/01/10 09:54:20;;;;;;;16.57;8.63;;;;;;;-0.73;85.65;96716.31;5077042;28;20496;-85
2021/01/10 09:56:50;;;;;;;20.20;11.17;;;;;;;-0.75;85.30;96708.81;5076812;28;20479;-86
2021/01/10 09:59:39;;;;;;;15.63;9.60;;;;;;;-0.63;85.43;96702.50;5076795;28;20476;-85
2021/01/10 10:02:14;;;;;;;15.57;8.70;;;;;;;-0.63;84.82;96699.84;5076881;28;20437;-85
2021/01/10 10:04:41;;;;;;;18.17;8.83;;;;;;;-0.52;83.84;96701.97;5076968;28;20527;-86
2021/01/10 10:07:08;;;;;;;14.60;8.57;;;;;;;-0.36;83.96;96703.41;5077234;28;20472;-85
2021/01/10 10:09:49;;;;;;;20.13;8.60;;;;;;;-0.49;83.40;96698.41;5076724;28;20406;-85
2021/01/10 10:12:15;;;;;;;11.23;8.07;;;;;;;-0.44;82.57;96699.69;5077244;28;20436;-86
2021/01/10 10:14:54;;;;;;;14.67;9.67;;;;;;;-0.28;82.84;96697.28;5098372;28;20446;-86
2021/01/10 10:17:21;;;;;;;15.03;8.00;;;;;;;-0.37;82.86;96697.38;5099463;28;20481;-86
2021/01/10 10:19:49;;;;;;;12.10;7.90;;;;;;;-0.38;83.16;96695.94;5098689;28;20445;-85
2021/01/10 10:22:23;;;;;;;13.10;7.43;;;;;;;-0.22;82.59;96700.75;5093949;28;20438;-85
2021/01/10 10:24:50;;;;;;;17.00;7.90;;;;;;;-0.16;81.46;96692.88;5077433;28;20532;-86
2021/01/10 10:27:18;;;;;;;13.40;7.70;;;;;;;-0.18;81.37;96690.69;5077762;28;20442;-86
2021/01/10 10:29:44;;;;;;;14.97;7.53;;;;;;;-0.17;81.30;96686.84;5076947;28;20987;-86
2021/01/10 10:32:12;;;;;;;18.27;9.90;;;;;;;-0.15;81.73;96692.41;5077483;28;20449;-85
2021/01/10 10:34:38;;;;;;;14.60;8.87;;;;;;;-0.03;81.42;96699.34;5075758;28;20518;-85
2021/01/10 10:37:06;;;;;;;13.40;7.60;;;;;;;-0.01;80.75;96694.31;5076185;28;20425;-86
2021/01/10 10:39:33;;;;;;;13.30;7.77;;;;;;;0.04;81.26;96689.53;5076563;28;20430;-87
2021/01/10 10:42:00;;;;;;;9.83;6.53;;;;;;;-0.10;80.38;96683.81;5076775;28;20495;-88
2021/01/10 10:44:26;;;;;;;11.63;6.93;;;;;;;-0.10;81.00;96685.75;5076767;28;20476;-87
2021/01/10 10:46:52;;;;;;;11.13;7.70;;;;;;;-0.04;80.74;96673.28;5076436;28;20997;-87
2021/01/10 10:49:20;;;;;;;12.33;7.60;;;;;;;0.00;80.46;96682.50;5077981;28;20433;-87
2021/01/10 10:51:46;;;;;;;10.10;6.43;;;;;;;0.07;80.17;96678.72;5075799;28;20506;-87
2021/01/10 10:54:14;;;;;;;9.10;6.97;;;;;;;0.15;80.19;96676.44;5076153;28;20548;-87
2021/01/10 10:56:41;;;;;;;11.90;6.57;;;;;;;0.10;80.16;96677.81;5075975;28;20426;-87
2021/01/10 10:59:08;;;;;;;12.57;6.77;;;;;;;0.01;80.48;96675.28;5075745;28;21027;-87
2021/01/10 11:01:41;;;;;;;15.53;6.77;;;;;;;0.08;81.57;96672.25;5076196;28;20436;-88
2021/01/10 11:04:08;;;;;;;10.17;6.70;;;;;;;0.07;81.34;96667.41;5075812;28;20913;-87
2021/01/10 11:06:37;;;;;;;15.93;7.47;;;;;;;0.19;82.07;96666.38;5075697;28;20793;-87
2021/01/10 11:09:04;;;;;;;9.73;6.37;;;;;;;0.36;79.45;96672.59;5076190;28;20449;-87
2021/01/10 11:11:38;;;;;;;9.97;6.27;;;;;;;0.23;78.91;96667.63;5076198;28;20557;-87
2021/01/10 11:14:06;;;;;;;10.87;6.47;;;;;;;0.03;79.58;96667.59;5075798;28;20469;-87
2021/01/10 11:16:33;;;;;;;10.83;6.63;;;;;;;0.06;80.87;96660.66;5076251;28;20441;-87
2021/01/10 11:19:00;;;;;;;15.50;7.90;;;;;;;-0.03;82.37;96661.47;5076703;28;20501;-87
2021/01/10 11:21:28;;;;;;;12.33;6.33;;;;;;;-0.18;82.34;96658.13;5077325;28;20502;-86
2021/01/10 11:23:55;;;;;;;14.30;8.37;;;;;;;-0.18;83.52;96650.19;5077352;28;20469;-84
2021/01/10 11:26:21;;;;;;;14.73;8.90;;;;;;;-0.07;83.51;96651.09;5076122;28;20476;-84
2021/01/10 11:28:48;;;;;;;14.73;8.73;;;;;;;-0.14;83.62;96642.78;5076175;28;20441;-84
2021/01/10 11:31:17;;;;;;;15.17;8.17;;;;;;;-0.19;83.77;96648.75;5076586;28;20454;-86